Time;durP1;ratioP1;P1;durP2;ratioP2;P2;SDS_P1;SDS_P2;PMS_P1;PMS_P2;Temp;Humidity;BMP_temperature;BMP_pressure;BME280_temperature;BME280_humidity;BME280_pressure;Samples;Min_cycle;Max_cycle;Signal;HPM_P1;HPM_P2
2022/12/11 00:02:04;;;;;;;81.55;52.95;;;-2.90;99.90;;;;;;5065063;28;20052;-76
2022/12/11 00:04:30;;;;;;;82.40;53.88;;;-2.90;99.90;;;;;;5079014;28;20016;-80
2022/12/11 00:06:56;;;;;;;96.90;60.90;;;-2.90;99.90;;;;;;5076564;28;20028;-76
2022/12/11 00:09:22;;;;;;;92.53;62.33;;;-3.00;99.90;;;;;;5072278;28;20017;-78
2022/12/11 00:11:48;;;;;;;93.72;59.50;;;-2.90;99.90;;;;;;5072296;28;20025;-77
2022/12/11 00:14:15;;;;;;;83.40;56.50;;;-3.00;99.90;;;;;;5062375;28;20097;-77
2022/12/11 00:16:41;;;;;;;74.60;46.55;;;-3.00;99.90;;;;;;5073519;28;20032;-77
2022/12/11 00:19:07;;;;;;;59.75;40.47;;;-3.10;99.90;;;;;;5075043;28;20025;-77
2022/12/11 00:21:33;;;;;;;61.97;41.80;;;-3.10;99.90;;;;;;5076087;28;20025;-77
2022/12/11 00:23:59;;;;;;;69.28;41.80;;;-3.10;99.90;;;;;;5067020;28;20366;-79
2022/12/11 00:26:25;;;;;;;51.78;36.58;;;-3.10;99.90;;;;;;5067355;28;20056;-79
2022/12/11 00:28:54;;;;;;;59.83;38.22;;;-3.10;99.90;;;;;;5073824;28;20032;-79
2022/12/11 00:31:20;;;;;;;61.08;39.83;;;-3.10;99.90;;;;;;5069714;28;20052;-79
2022/12/11 00:33:50;;;;;;;57.25;37.60;;;-3.20;99.90;;;;;;5075268;28;20432;-79
2022/12/11 00:36:21;;;;;;;53.85;36.53;;;-3.30;99.90;;;;;;5071566;28;20102;-79
2022/12/11 00:38:48;;;;;;;51.45;35.38;;;-3.30;99.90;;;;;;5074844;28;20020;-79
2022/12/11 00:41:15;;;;;;;48.38;33.47;;;-3.30;99.90;;;;;;5073520;28;20069;-80
2022/12/11 00:43:41;;;;;;;49.08;33.97;;;-3.30;99.90;;;;;;5077236;28;20021;-79
2022/12/11 00:46:07;;;;;;;54.05;36.80;;;-3.30;99.90;;;;;;5060291;28;20032;-79
2022/12/11 00:48:33;;;;;;;50.75;34.85;;;-3.30;99.90;;;;;;5074398;28;20399;-79
2022/12/11 00:50:59;;;;;;;56.42;37.42;;;-3.40;99.90;;;;;;5076146;28;20028;-79
2022/12/11 00:53:24;;;;;;;52.67;35.10;;;-3.40;99.90;;;;;;5070425;28;20115;-78
2022/12/11 00:55:50;;;;;;;55.55;37.55;;;-3.40;99.90;;;;;;5088071;28;20036;-79
2022/12/11 00:58:17;;;;;;;50.63;36.80;;;-3.40;99.90;;;;;;5071001;28;20515;-79
2022/12/11 01:00:43;;;;;;;54.08;35.60;;;-3.40;99.90;;;;;;5073099;28;20079;-78
2022/12/11 01:03:10;;;;;;;55.40;33.95;;;-3.40;99.90;;;;;;5071801;28;20120;-78
2022/12/11 01:05:36;;;;;;;50.15;35.17;;;-3.40;99.90;;;;;;5077450;28;20029;-78
2022/12/11 01:08:02;;;;;;;51.47;36.95;;;-3.40;99.90;;;;;;5068448;28;20040;-78
2022/12/11 01:10:28;;;;;;;59.13;38.65;;;-3.40;99.90;;;;;;5076243;28;20031;-78
2022/12/11 01:12:57;;;;;;;56.33;37.47;;;-3.40;99.90;;;;;;5068016;28;20033;-78
2022/12/11 01:15:27;;;;;;;58.47;39.67;;;-3.40;99.90;;;;;;5064614;28;20115;-78
2022/12/11 01:17:53;;;;;;;60.33;39.93;;;-3.40;99.90;;;;;;5066918;28;20499;-79
2022/12/11 01:20:21;;;;;;;57.45;40.40;;;-3.40;99.90;;;;;;5066581;28;20013;-79
2022/12/11 01:22:47;;;;;;;56.33;38.97;;;-3.40;99.90;;;;;;5068650;28;20033;-79
2022/12/11 01:25:13;;;;;;;56.35;36.45;;;-3.50;99.90;;;;;;5070549;28;20102;-79
2022/12/11 01:27:39;;;;;;;52.22;37.55;;;-3.50;99.90;;;;;;5071007;28;20507;-78
2022/12/11 01:30:07;;;;;;;62.03;39.22;;;-3.50;99.90;;;;;;5071723;28;20025;-77
2022/12/11 01:32:34;;;;;;;62.25;38.08;;;-3.50;99.90;;;;;;5071841;28;20029;-78
2022/12/11 01:35:02;;;;;;;60.25;37.65;;;-3.50;99.90;;;;;;5070534;28;20028;-78
2022/12/11 01:37:27;;;;;;;53.67;37.38;;;-3.50;99.90;;;;;;5068739;28;20033;-78
2022/12/11 01:39:53;;;;;;;57.20;39.70;;;-3.50;99.90;;;;;;5073567;28;20017;-78
2022/12/11 01:42:20;;;;;;;61.47;40.30;;;-3.50;99.90;;;;;;5061870;28;20032;-77
2022/12/11 01:44:45;;;;;;;71.35;42.95;;;-3.50;99.90;;;;;;5069385;28;20102;-77
2022/12/11 01:47:12;;;;;;;61.88;41.92;;;-3.50;99.90;;;;;;5068414;28;20037;-77
2022/12/11 01:49:40;;;;;;;61.60;42.47;;;-3.40;99.90;;;;;;5065235;28;20392;-77
2022/12/11 01:52:18;;;;;;;60.13;40.85;;;-3.50;99.90;;;;;;5069896;28;20025;-77
2022/12/11 01:54:45;;;;;;;62.03;41.13;;;-3.60;99.90;;;;;;5075073;28;20048;-78
2022/12/11 01:57:12;;;;;;;58.80;40.05;;;-3.60;99.90;;;;;;5064508;28;20546;-77
2022/12/11 01:59:41;;;;;;;65.28;41.30;;;-3.60;99.90;;;;;;5065768;28;20508;-77
2022/12/11 02:02:29;;;;;;;59.40;39.63;;;-3.60;99.90;;;;;;5063987;28;20374;-77
2022/12/11 02:04:55;;;;;;;52.67;38.95;;;-3.60;99.90;;;;;;5064819;28;20511;-78
2022/12/11 02:07:22;;;;;;;58.40;40.05;;;-3.60;99.90;;;;;;5072208;28;20035;-78
2022/12/11 02:09:48;;;;;;;65.85;42.22;;;-3.60;99.90;;;;;;5071375;28;20012;-78
2022/12/11 02:12:27;;;;;;;64.03;42.90;;;-3.60;99.90;;;;;;5065833;28;20082;-77
2022/12/11 02:15:05;;;;;;;64.43;42.70;;;-3.70;99.90;;;;;;5061921;28;20021;-77
2022/12/11 02:17:43;;;;;;;59.33;41.92;;;-3.60;99.90;;;;;;5066893;28;20031;-77
2022/12/11 02:20:25;;;;;;;64.72;43.00;;;-3.60;99.90;;;;;;5064411;28;20431;-77
2022/12/11 02:23:06;;;;;;;64.90;42.22;;;-3.60;99.90;;;;;;5064065;28;20029;-77
2022/12/11 02:25:50;;;;;;;72.43;43.17;;;-3.60;99.90;;;;;;5071776;28;20413;-77
2022/12/11 02:28:37;;;;;;;64.57;41.83;;;-3.60;99.90;;;;;;5063052;28;20118;-78
2022/12/11 02:31:09;;;;;;;65.25;43.40;;;-3.70;99.90;;;;;;5061855;28;20024;-78
2022/12/11 02:33:44;;;;;;;69.95;44.35;;;-3.70;99.90;;;;;;5072292;28;20024;-77
2022/12/11 02:36:13;;;;;;;65.18;43.47;;;-3.80;99.90;;;;;;5063124;28;20090;-78
2022/12/11 02:38:42;;;;;;;70.10;44.17;;;-3.80;99.90;;;;;;5069631;28;20037;-78
2022/12/11 02:41:10;;;;;;;68.45;44.55;;;-3.80;99.90;;;;;;5060742;28;20017;-77
2022/12/11 02:43:37;;;;;;;68.85;44.17;;;-3.80;99.90;;;;;;5069612;28;20132;-76
2022/12/11 02:46:06;;;;;;;65.15;44.03;;;-3.80;99.90;;;;;;5070805;28;20021;-77
2022/12/11 02:48:33;;;;;;;70.65;43.80;;;-3.80;99.90;;;;;;5061979;28;20076;-77
2022/12/11 02:51:01;;;;;;;66.32;41.72;;;-3.70;99.90;;;;;;5074456;28;20051;-77
2022/12/11 02:53:30;;;;;;;65.88;42.10;;;-3.80;99.90;;;;;;5083220;28;20489;-77
2022/12/11 02:56:09;;;;;;;63.33;43.15;;;-3.80;99.90;;;;;;5073311;28;20021;-77
2022/12/11 02:58:38;;;;;;;65.95;44.58;;;-3.80;99.90;;;;;;5069703;28;20029;-77
2022/12/11 03:01:04;;;;;;;59.60;41.20;;;-3.70;99.90;;;;;;5071091;28;20027;-77
2022/12/11 03:03:30;;;;;;;63.90;44.22;;;-3.80;99.90;;;;;;5070373;28;20259;-76
2022/12/11 03:05:56;;;;;;;70.90;44.17;;;-3.80;99.90;;;;;;5071393;28;20040;-77
2022/12/11 03:08:22;;;;;;;64.25;42.90;;;-3.80;99.90;;;;;;5066473;28;20025;-78
2022/12/11 03:10:48;;;;;;;65.47;42.30;;;-3.80;99.90;;;;;;5072600;28;20020;-77
2022/12/11 03:13:19;;;;;;;62.55;41.88;;;-3.80;99.90;;;;;;5069082;28;20033;-78
2022/12/11 03:15:45;;;;;;;60.10;41.17;;;-3.80;99.90;;;;;;5066323;28;20021;-77
2022/12/11 03:18:27;;;;;;;64.00;42.15;;;-3.90;99.90;;;;;;5060928;28;20037;-77
2022/12/11 03:21:04;;;;;;;65.63;43.17;;;-3.90;99.90;;;;;;5068408;28;20021;-77
2022/12/11 03:23:45;;;;;;;60.75;42.83;;;-3.80;99.90;;;;;;5063086;28;20025;-77
2022/12/11 03:26:12;;;;;;;;;;;-3.80;99.90;;;;;;5064950;28;20476;-77
2022/12/11 03:28:55;;;;;;;58.85;39.28;;;-3.80;99.90;;;;;;5072008;28;20331;-78
2022/12/11 03:31:25;;;;;;;59.13;41.25;;;-3.90;99.90;;;;;;5066446;28;20078;-77
2022/12/11 03:33:55;;;;;;;65.75;42.10;;;-3.90;99.90;;;;;;5072059;28;20389;-77
2022/12/11 03:36:25;;;;;;;71.78;43.25;;;-3.90;99.90;;;;;;5056831;28;20040;-77
2022/12/11 03:38:58;;;;;;;69.93;43.10;;;-3.90;99.90;;;;;;5072697;28;20032;-77
2022/12/11 03:41:27;;;;;;;68.38;42.85;;;-4.00;99.90;;;;;;5069969;28;20029;-77
2022/12/11 03:43:57;;;;;;;67.68;41.70;;;-4.00;99.90;;;;;;5071528;28;20032;-77
2022/12/11 03:46:29;;;;;;;75.78;43.70;;;-4.00;99.90;;;;;;5058425;28;20021;-77
2022/12/11 03:49:00;;;;;;;63.63;43.17;;;-4.00;99.90;;;;;;5067619;28;20037;-76
2022/12/11 03:51:29;;;;;;;66.05;43.33;;;-4.10;99.90;;;;;;5072773;28;20021;-77
2022/12/11 03:53:56;;;;;;;57.95;39.40;;;-4.10;99.90;;;;;;5069210;28;20037;-77
2022/12/11 03:56:25;;;;;;;63.85;40.42;;;-4.20;99.90;;;;;;5070423;28;20024;-77
2022/12/11 03:58:51;;;;;;;56.78;38.70;;;-4.30;99.90;;;;;;5070542;28;20037;-77
2022/12/11 04:01:16;;;;;;;64.82;43.08;;;-4.30;99.90;;;;;;5068253;28;20070;-77
2022/12/11 04:03:42;;;;;;;68.70;45.00;;;-4.30;99.90;;;;;;5071875;28;20535;-77
2022/12/11 04:06:08;;;;;;;67.05;42.75;;;-4.30;99.90;;;;;;5073682;28;20017;-78
2022/12/11 04:08:34;;;;;;;69.00;46.42;;;-4.40;99.90;;;;;;5071904;28;20033;-77
2022/12/11 04:11:44;;;;;;;55.40;39.15;;;-4.40;99.90;;;;;;5070446;28;20449;-77
2022/12/11 04:15:00;;;;;;;66.18;44.42;;;-4.40;99.90;;;;;;5067153;28;20034;-77
2022/12/11 04:16:37;;;;;;;65.78;42.75;;;-4.30;99.90;;;;;;5074915;28;20039;-77
2022/12/11 04:24:33;;;;;;;76.25;47.95;;;-4.30;99.90;;;;;;5068042;28;20058;-77
2022/12/11 04:26:59;;;;;;;73.53;48.20;;;-4.30;99.90;;;;;;5062600;28;20033;-77
2022/12/11 04:29:25;;;;;;;73.65;48.47;;;-4.30;99.90;;;;;;5065182;28;20075;-77
2022/12/11 04:31:51;;;;;;;65.50;44.47;;;-4.30;99.90;;;;;;5072891;28;20043;-77
2022/12/11 04:34:17;;;;;;;71.60;43.65;;;-4.30;99.90;;;;;;5066443;28;20032;-77
2022/12/11 04:36:43;;;;;;;60.53;42.67;;;-4.40;99.90;;;;;;5071429;28;20035;-77
2022/12/11 04:39:09;;;;;;;69.05;41.70;;;-4.40;99.90;;;;;;5075080;28;20178;-76
2022/12/11 04:41:36;;;;;;;58.30;41.10;;;-4.40;99.90;;;;;;5063097;28;20025;-77
2022/12/11 04:44:01;;;;;;;61.83;42.65;;;-4.40;99.90;;;;;;5068627;28;20024;-76
2022/12/11 04:46:27;;;;;;;63.00;43.33;;;-4.50;99.90;;;;;;5067244;28;20020;-77
2022/12/11 04:48:53;;;;;;;61.67;42.00;;;-4.50;99.90;;;;;;5062126;28;20032;-76
2022/12/11 04:51:19;;;;;;;56.10;41.25;;;-4.50;99.90;;;;;;5075917;28;20025;-76
2022/12/11 04:53:45;;;;;;;64.80;41.72;;;-4.50;99.90;;;;;;5060687;28;20698;-77
2022/12/11 04:56:13;;;;;;;56.10;39.70;;;-4.60;99.90;;;;;;5076513;28;20373;-77
2022/12/11 04:58:41;;;;;;;60.05;41.15;;;-4.60;99.90;;;;;;5072922;28;20102;-77
2022/12/11 05:01:15;;;;;;;60.15;40.95;;;-4.50;99.90;;;;;;5064452;28;20524;-76
2022/12/11 05:03:42;;;;;;;60.33;39.42;;;-4.60;99.90;;;;;;5086880;28;20021;-76
2022/12/11 05:06:09;;;;;;;57.00;38.25;;;-4.50;99.90;;;;;;5074390;28;20112;-76
2022/12/11 05:08:37;;;;;;;64.32;40.47;;;-4.60;99.90;;;;;;5069901;28;20052;-76
2022/12/11 05:11:06;;;;;;;55.22;39.40;;;-4.60;99.90;;;;;;5074312;28;20056;-76
2022/12/11 05:13:33;;;;;;;62.27;41.73;;;-4.60;99.90;;;;;;5067700;28;20095;-76
2022/12/11 05:15:59;;;;;;;57.47;38.28;;;-4.60;99.90;;;;;;5069568;28;20039;-77
2022/12/11 05:18:25;;;;;;;58.50;38.72;;;-4.60;99.90;;;;;;5063522;28;20417;-77
2022/12/11 05:20:59;;;;;;;61.50;38.90;;;-4.60;99.90;;;;;;5069559;28;20404;-76
2022/12/11 05:23:25;;;;;;;62.22;38.97;;;-4.50;99.90;;;;;;5062818;28;20017;-76
2022/12/11 05:25:52;;;;;;;62.13;40.92;;;-4.50;99.90;;;;;;5072913;28;20074;-78
2022/12/11 05:28:20;;;;;;;64.82;41.70;;;-4.50;99.90;;;;;;5067667;28;20033;-78
2022/12/11 05:30:46;;;;;;;64.95;43.10;;;-4.50;99.90;;;;;;5070611;28;20086;-78
2022/12/11 05:33:12;;;;;;;65.85;43.67;;;-4.50;99.90;;;;;;5060751;28;20481;-78
2022/12/11 05:35:38;;;;;;;62.88;42.10;;;-4.40;99.90;;;;;;5066865;28;20046;-78
2022/12/11 05:38:04;;;;;;;59.47;40.53;;;-4.50;99.90;;;;;;5060032;28;20068;-78
2022/12/11 05:40:29;;;;;;;68.82;40.70;;;-4.50;99.90;;;;;;5062831;28;20021;-78
2022/12/11 05:42:55;;;;;;;60.22;41.42;;;-4.50;99.90;;;;;;5068767;28;20025;-77
2022/12/11 05:45:21;;;;;;;60.78;40.92;;;-4.50;99.90;;;;;;5060684;28;20021;-78
2022/12/11 05:47:47;;;;;;;65.78;45.00;;;-4.50;99.90;;;;;;5061306;28;20017;-78
2022/12/11 05:50:13;;;;;;;71.97;46.28;;;-4.50;99.90;;;;;;5070797;28;20054;-78
2022/12/11 05:52:39;;;;;;;73.75;45.70;;;-4.60;99.90;;;;;;5067470;28;20021;-78
2022/12/11 05:55:05;;;;;;;58.90;39.58;;;-4.60;99.90;;;;;;5068514;28;20027;-78
2022/12/11 05:57:31;;;;;;;54.50;36.80;;;-4.60;99.90;;;;;;5068162;28;20028;-78
2022/12/11 05:59:58;;;;;;;54.25;39.05;;;-4.60;99.90;;;;;;5076773;28;20051;-78
2022/12/11 06:02:23;;;;;;;58.08;39.70;;;-4.60;99.90;;;;;;5064535;28;20055;-78
2022/12/11 06:04:49;;;;;;;60.33;38.55;;;-4.60;99.90;;;;;;5065960;28;20016;-80
2022/12/11 06:07:15;;;;;;;62.08;41.33;;;-4.60;99.90;;;;;;5070061;28;20025;-79
2022/12/11 06:09:41;;;;;;;58.38;39.78;;;-4.50;99.90;;;;;;5071729;28;20028;-80
2022/12/11 06:12:07;;;;;;;64.72;40.88;;;-4.50;99.90;;;;;;5067648;28;20060;-80
2022/12/11 06:14:32;;;;;;;62.83;42.65;;;-4.60;99.90;;;;;;5059505;28;20396;-80
2022/12/11 06:16:58;;;;;;;60.72;41.88;;;-4.50;99.90;;;;;;5071861;28;20024;-80
2022/12/11 06:19:24;;;;;;;64.88;42.50;;;-4.50;99.90;;;;;;5068265;28;20029;-80
2022/12/11 06:21:50;;;;;;;64.15;43.33;;;-4.60;99.90;;;;;;5058560;28;20016;-80
2022/12/11 06:24:16;;;;;;;62.75;40.78;;;-4.50;99.90;;;;;;5057468;28;20033;-80
2022/12/11 06:26:42;;;;;;;59.40;42.70;;;-4.50;99.90;;;;;;5064019;28;20080;-80
2022/12/11 06:29:07;;;;;;;60.38;41.58;;;-4.50;99.90;;;;;;5065061;28;20024;-80
2022/12/11 06:31:34;;;;;;;56.00;39.92;;;-4.50;99.90;;;;;;5066563;28;20099;-80
2022/12/11 06:34:00;;;;;;;55.67;38.58;;;-4.50;99.90;;;;;;5073242;28;20021;-81
2022/12/11 06:36:26;;;;;;;53.78;38.72;;;-4.50;99.90;;;;;;5066979;28;20512;-80
2022/12/11 06:38:54;;;;;;;51.95;37.22;;;-4.50;99.90;;;;;;5073543;28;20177;-80
2022/12/11 06:41:19;;;;;;;54.30;36.80;;;-4.50;99.90;;;;;;5069960;28;20051;-80
2022/12/11 06:43:46;;;;;;;56.28;37.45;;;-4.50;99.90;;;;;;5075047;28;20508;-80
2022/12/11 06:46:14;;;;;;;60.45;39.97;;;-4.50;99.90;;;;;;5059021;28;20061;-81
2022/12/11 06:48:43;;;;;;;67.53;41.55;;;-4.50;99.90;;;;;;5068714;28;20033;-81
2022/12/11 06:51:14;;;;;;;58.40;39.40;;;-4.50;99.90;;;;;;5062799;28;20102;-81
2022/12/11 06:53:41;;;;;;;60.13;39.55;;;-4.50;99.90;;;;;;5074629;28;20043;-81
2022/12/11 06:56:12;;;;;;;64.82;41.95;;;-4.40;99.90;;;;;;5074159;28;20036;-81
2022/12/11 06:58:39;;;;;;;59.45;39.53;;;-4.40;99.90;;;;;;5067429;28;20024;-81
2022/12/11 07:01:16;;;;;;;58.75;38.08;;;-4.50;99.90;;;;;;5063866;28;20032;-81
2022/12/11 07:03:42;;;;;;;58.75;39.45;;;-4.50;99.90;;;;;;5074643;28;20492;-80
2022/12/11 07:06:09;;;;;;;59.70;40.47;;;-4.40;99.90;;;;;;5074569;28;20039;-80
2022/12/11 07:08:34;;;;;;;60.58;41.55;;;-4.40;99.90;;;;;;5067941;28;20027;-81
2022/12/11 07:11:09;;;;;;;62.10;41.97;;;-4.40;99.90;;;;;;5072266;28;20486;-81
2022/12/11 07:13:35;;;;;;;61.60;39.70;;;-4.30;99.90;;;;;;5071551;28;20092;-81
2022/12/11 07:16:03;;;;;;;58.97;39.85;;;-4.30;99.90;;;;;;5069659;28;20025;-81
2022/12/11 07:18:31;;;;;;;52.05;37.72;;;-4.30;99.90;;;;;;5064533;28;20109;-81
2022/12/11 07:20:59;;;;;;;54.97;39.55;;;-4.40;99.90;;;;;;5064852;28;20405;-81
2022/12/11 07:23:29;;;;;;;59.10;40.88;;;-4.30;99.90;;;;;;5064457;28;20017;-82
2022/12/11 07:25:55;;;;;;;60.20;40.35;;;-4.20;99.90;;;;;;5076056;28;20048;-80
2022/12/11 07:28:21;;;;;;;55.22;40.65;;;-4.20;99.90;;;;;;5062853;28;20037;-80
2022/12/11 07:30:47;;;;;;;63.63;42.75;;;-4.20;99.90;;;;;;5063334;28;20021;-79
2022/12/11 07:33:13;;;;;;;56.45;38.83;;;-4.20;99.90;;;;;;5066835;28;20040;-79
2022/12/11 07:35:39;;;;;;;60.95;39.22;;;-4.20;99.90;;;;;;5069170;28;20028;-80
2022/12/11 07:38:04;;;;;;;59.05;40.58;;;-4.10;99.90;;;;;;5067189;28;20036;-80
2022/12/11 07:40:32;;;;;;;58.15;39.80;;;-4.10;99.90;;;;;;5061009;28;20017;-78
2022/12/11 07:42:58;;;;;;;69.68;45.22;;;-4.00;99.90;;;;;;5066534;28;20158;-78
2022/12/11 07:45:25;;;;;;;101.55;58.63;;;-4.00;99.90;;;;;;5071589;28;20096;-77
2022/12/11 07:47:51;;;;;;;70.35;45.35;;;-3.90;99.90;;;;;;5068346;28;20039;-78
2022/12/11 07:50:18;;;;;;;73.63;44.90;;;-3.90;99.90;;;;;;5063727;28;20482;-77
2022/12/11 07:52:44;;;;;;;66.00;41.80;;;-3.80;99.90;;;;;;5067326;28;20020;-77
2022/12/11 07:55:09;;;;;;;67.47;42.70;;;-3.70;99.90;;;;;;5077746;28;20393;-78
2022/12/11 07:57:36;;;;;;;68.32;42.15;;;-3.70;99.90;;;;;;5069269;28;20127;-78
2022/12/11 08:00:03;;;;;;;74.70;47.85;;;-3.60;99.90;;;;;;5075789;28;20026;-78
2022/12/11 08:02:29;;;;;;;87.10;55.33;;;-3.60;99.90;;;;;;5066615;28;20432;-78
2022/12/11 08:04:55;;;;;;;69.15;45.08;;;-3.60;99.90;;;;;;5074667;28;20024;-78
2022/12/11 08:07:21;;;;;;;67.35;44.63;;;-3.50;99.90;;;;;;5071488;28;20020;-78
2022/12/11 08:09:46;;;;;;;64.60;40.70;;;-3.50;99.90;;;;;;5069834;28;20036;-78
2022/12/11 08:12:12;;;;;;;64.47;43.60;;;-3.40;99.90;;;;;;5075965;28;20044;-78
2022/12/11 08:14:38;;;;;;;60.53;41.67;;;-3.30;99.90;;;;;;5072169;28;20013;-78
2022/12/11 08:17:04;;;;;;;59.50;42.13;;;-3.30;99.90;;;;;;5071796;28;20394;-78
2022/12/11 08:19:30;;;;;;;63.70;43.55;;;-3.20;99.90;;;;;;5072385;28;20013;-78
2022/12/11 08:21:56;;;;;;;65.00;43.17;;;-3.10;99.90;;;;;;5075668;28;20040;-78
2022/12/11 08:24:21;;;;;;;68.38;41.97;;;-3.00;99.90;;;;;;5070928;28;20019;-78
2022/12/11 08:26:48;;;;;;;69.15;47.95;;;-3.00;99.90;;;;;;5076139;28;20040;-78
2022/12/11 08:29:14;;;;;;;61.85;42.35;;;-3.00;99.90;;;;;;5063412;28;20025;-79
2022/12/11 08:31:40;;;;;;;64.80;44.92;;;-2.90;99.90;;;;;;5063281;28;20024;-78
2022/12/11 08:34:06;;;;;;;339.65;185.13;;;-2.80;99.90;;;;;;5067705;28;20029;-78
2022/12/11 08:36:32;;;;;;;159.88;98.60;;;-2.70;99.90;;;;;;5064380;28;20549;-79
2022/12/11 08:38:58;;;;;;;69.38;50.47;;;-2.70;99.90;;;;;;5071997;28;20883;-79
2022/12/11 08:41:27;;;;;;;73.85;45.17;;;-2.60;99.90;;;;;;5062268;28;20067;-79
2022/12/11 08:43:56;;;;;;;64.80;43.33;;;-2.70;99.90;;;;;;5069128;28;20039;-79
2022/12/11 08:46:30;;;;;;;110.05;69.25;;;-2.70;99.90;;;;;;5060870;28;20013;-78
2022/12/11 08:48:57;;;;;;;189.98;112.28;;;-2.60;99.90;;;;;;5071432;28;20025;-80
2022/12/11 08:51:25;;;;;;;79.10;51.38;;;-2.60;99.90;;;;;;5076074;28;20027;-80
2022/12/11 08:53:55;;;;;;;73.80;48.25;;;-2.50;99.90;;;;;;5064152;28;20029;-80
2022/12/11 08:56:22;;;;;;;61.25;42.38;;;-2.40;99.90;;;;;;5073840;28;20028;-81
2022/12/11 08:58:49;;;;;;;62.58;42.03;;;-2.40;99.90;;;;;;5058719;28;20036;-80
2022/12/11 09:01:21;;;;;;;64.38;41.83;;;-2.30;99.90;;;;;;5076697;28;20021;-80
2022/12/11 09:03:47;;;;;;;66.10;43.03;;;-2.20;99.90;;;;;;5075427;28;20031;-81
2022/12/11 09:06:17;;;;;;;58.42;39.72;;;-2.10;99.90;;;;;;5070832;28;20020;-81
2022/12/11 09:08:44;;;;;;;63.90;45.35;;;-2.00;99.90;;;;;;5072538;28;20561;-80
2022/12/11 09:11:13;;;;;;;63.63;40.92;;;-2.00;99.90;;;;;;5077032;28;20020;-80
2022/12/11 09:13:40;;;;;;;60.05;41.63;;;-1.90;99.90;;;;;;5070589;28;20036;-80
2022/12/11 09:16:08;;;;;;;64.28;41.70;;;-1.70;99.90;;;;;;5069447;28;20028;-81
2022/12/11 09:18:36;;;;;;;64.72;44.60;;;-1.80;99.90;;;;;;5070981;28;20036;-82
2022/12/11 09:21:09;;;;;;;59.35;42.10;;;-1.70;99.90;;;;;;5072206;28;20024;-80
2022/12/11 09:23:35;;;;;;;69.80;44.13;;;-1.70;99.90;;;;;;5071242;28;20028;-81
2022/12/11 09:26:12;;;;;;;78.65;47.50;;;-1.60;99.90;;;;;;5068829;28;20045;-80
2022/12/11 09:28:39;;;;;;;58.47;43.28;;;-1.50;99.90;;;;;;5073379;28;20111;-81
2022/12/11 09:31:14;;;;;;;97.18;60.92;;;-1.40;99.90;;;;;;5060644;28;20080;-80
2022/12/11 09:33:40;;;;;;;64.28;42.83;;;-1.50;99.90;;;;;;5065660;28;20029;-80
2022/12/11 09:36:06;;;;;;;61.33;40.80;;;-1.50;99.90;;;;;;5065505;28;20021;-80
2022/12/11 09:38:33;;;;;;;59.65;42.70;;;-1.50;99.90;;;;;;5071514;28;20029;-82
2022/12/11 09:41:00;;;;;;;63.25;42.20;;;-1.50;99.90;;;;;;5061382;28;20024;-81
2022/12/11 09:43:47;;;;;;;65.10;42.38;;;-1.40;99.90;;;;;;5067212;28;20534;-81
2022/12/11 09:46:15;;;;;;;58.33;39.08;;;-1.30;99.90;;;;;;5059070;28;20087;-82
2022/12/11 09:48:47;;;;;;;51.20;38.92;;;-1.30;99.90;;;;;;5069443;28;20120;-80
2022/12/11 09:51:18;;;;;;;55.58;37.25;;;-1.20;99.90;;;;;;5058241;28;20032;-81
2022/12/11 09:53:44;;;;;;;51.47;36.92;;;-1.20;99.90;;;;;;5062533;28;20024;-81
2022/12/11 09:56:19;;;;;;;51.85;35.20;;;-1.20;99.90;;;;;;5078614;28;20031;-81
2022/12/11 09:58:54;;;;;;;53.20;34.22;;;-1.10;99.90;;;;;;5058872;28;20428;-82
2022/12/11 10:01:45;;;;;;;58.95;37.05;;;-1.20;99.90;;;;;;5082802;28;20021;-81
2022/12/11 10:04:58;;;;;;;54.60;32.22;;;-1.30;99.90;;;;;;5071592;28;20021;-82
2022/12/11 10:07:34;;;;;;;49.85;33.67;;;-1.30;99.90;;;;;;5070351;28;20496;-81
2022/12/11 10:10:18;;;;;;;55.67;36.40;;;-1.20;99.90;;;;;;5075244;28;20029;-83
2022/12/11 10:12:57;;;;;;;51.28;35.97;;;-1.30;99.90;;;;;;5071508;28;20107;-82
2022/12/11 10:15:26;;;;;;;51.28;35.22;;;-1.30;99.90;;;;;;5066874;28;20027;-83
2022/12/11 10:17:56;;;;;;;59.72;38.42;;;-1.40;99.90;;;;;;5071485;28;20025;-85
2022/12/11 10:20:25;;;;;;;62.92;43.03;;;-1.40;99.90;;;;;;5070494;28;20078;-84
2022/12/11 10:22:53;;;;;;;57.13;40.67;;;-1.30;99.90;;;;;;5070293;28;20025;-82
2022/12/11 10:25:34;;;;;;;54.53;38.53;;;-1.30;99.90;;;;;;5077026;28;20361;-82
2022/12/11 10:28:12;;;;;;;53.03;36.60;;;-1.20;99.90;;;;;;5064360;28;20036;-85
2022/12/11 10:30:46;;;;;;;52.72;37.50;;;-1.20;99.90;;;;;;5061104;28;20025;-84
2022/12/11 10:33:21;;;;;;;49.50;35.92;;;-1.10;99.90;;;;;;5069327;28;20033;-84
2022/12/11 10:35:51;;;;;;;52.00;35.60;;;-1.10;99.90;;;;;;5056693;28;20093;-82
2022/12/11 10:38:22;;;;;;;51.85;37.70;;;-0.90;99.90;;;;;;5069271;28;20028;-81
2022/12/11 10:40:58;;;;;;;58.45;39.08;;;-0.80;99.90;;;;;;5073386;28;20167;-82
2022/12/11 10:43:35;;;;;;;44.60;32.28;;;-0.60;99.90;;;;;;5067782;28;20378;-81
2022/12/11 10:46:03;;;;;;;49.88;32.78;;;-0.40;99.90;;;;;;5064711;28;20048;-82
2022/12/11 10:48:29;;;;;;;41.45;29.55;;;-0.30;99.90;;;;;;5068636;28;20024;-80
2022/12/11 10:50:59;;;;;;;250.35;94.18;;;-0.20;99.90;;;;;;5071258;28;20401;-80
2022/12/11 10:53:25;;;;;;;44.38;29.88;;;0.00;99.90;;;;;;5061799;28;20151;-79
2022/12/11 10:55:52;;;;;;;48.22;31.52;;;0.10;99.90;;;;;;5058928;28;20028;-80
2022/12/11 10:58:22;;;;;;;651.85;319.50;;;0.30;99.90;;;;;;5062496;28;20405;-82
2022/12/11 11:01:12;;;;;;;49.40;29.77;;;0.40;99.90;;;;;;5057650;28;20041;-81
2022/12/11 11:03:53;;;;;;;38.08;27.92;;;0.50;99.90;;;;;;5067580;28;20036;-80
2022/12/11 11:06:20;;;;;;;261.17;104.93;;;0.60;99.90;;;;;;5071118;28;20016;-79
2022/12/11 11:08:52;;;;;;;146.80;67.72;;;0.60;99.90;;;;;;5073986;28;20024;-81
2022/12/11 11:11:23;;;;;;;397.77;162.20;;;0.60;99.90;;;;;;5067029;28;20032;-80
2022/12/11 11:13:50;;;;;;;748.15;407.33;;;0.50;99.90;;;;;;5062976;28;20094;-80
2022/12/11 11:16:18;;;;;;;255.07;120.40;;;0.50;99.90;;;;;;5074908;28;20028;-81
2022/12/11 11:18:56;;;;;;;527.90;270.50;;;0.40;99.90;;;;;;5063810;28;20078;-80
2022/12/11 11:21:24;;;;;;;176.55;83.38;;;0.30;99.90;;;;;;5072808;28;20070;-80
2022/12/11 11:23:52;;;;;;;562.90;292.30;;;0.20;99.90;;;;;;5065572;28;20067;-80
2022/12/11 11:26:19;;;;;;;54.35;35.72;;;0.10;99.90;;;;;;5065209;28;20052;-80
2022/12/11 11:28:56;;;;;;;227.38;111.28;;;0.10;99.90;;;;;;5062590;28;20396;-79
2022/12/11 11:31:32;;;;;;;228.00;110.95;;;0.20;99.90;;;;;;5072901;28;20043;-79
2022/12/11 11:34:07;;;;;;;93.60;51.30;;;0.20;99.90;;;;;;5069451;28;20065;-79
2022/12/11 11:36:35;;;;;;;58.28;37.45;;;0.30;99.90;;;;;;5071109;28;20035;-80
2022/12/11 11:39:22;;;;;;;33.35;24.85;;;0.40;99.90;;;;;;5069995;28;20116;-82
2022/12/11 11:41:53;;;;;;;73.60;44.00;;;0.50;99.90;;;;;;5068061;28;20024;-80
2022/12/11 11:44:30;;;;;;;35.75;26.70;;;0.50;99.90;;;;;;5070212;28;20029;-81
2022/12/11 11:47:10;;;;;;;116.90;70.28;;;0.60;99.90;;;;;;5065114;28;20421;-81
2022/12/11 11:49:56;;;;;;;35.63;26.33;;;0.60;99.90;;;;;;5068006;28;20082;-81
2022/12/11 11:52:36;;;;;;;40.53;27.98;;;0.60;99.90;;;;;;5068368;28;20029;-81
2022/12/11 11:55:12;;;;;;;233.32;129.60;;;0.70;99.90;;;;;;5074656;28;20052;-80
2022/12/11 11:57:54;;;;;;;53.22;34.72;;;0.70;99.90;;;;;;5070373;28;20039;-81
2022/12/11 12:00:22;;;;;;;47.35;31.45;;;0.80;99.90;;;;;;5069483;28;20039;-81
2022/12/11 12:02:53;;;;;;;150.68;91.35;;;0.80;99.90;;;;;;5063243;28;20025;-80
2022/12/11 12:05:28;;;;;;;189.95;112.90;;;0.90;99.90;;;;;;5068815;28;20025;-80
2022/12/11 12:08:13;;;;;;;226.18;134.10;;;0.90;99.90;;;;;;5068658;28;20067;-81
2022/12/11 12:11:06;;;;;;;60.00;41.53;;;1.00;99.90;;;;;;5064631;28;20048;-80
2022/12/11 12:14:10;;;;;;;58.83;41.20;;;1.00;99.90;;;;;;5064430;28;20028;-81
2022/12/11 12:16:44;;;;;;;84.65;54.25;;;1.00;99.90;;;;;;5062176;28;20124;-81
2022/12/11 12:19:41;;;;;;;421.77;264.27;;;1.10;99.90;;;;;;5062527;28;20033;-80
2022/12/11 12:22:31;;;;;;;37.85;28.88;;;1.10;99.90;;;;;;5070486;28;20028;-80
2022/12/11 12:25:19;;;;;;;31.55;23.38;;;1.10;99.90;;;;;;5060934;28;20041;-80
2022/12/11 12:27:54;;;;;;;26.77;23.02;;;1.20;99.90;;;;;;5067384;28;20033;-80
2022/12/11 12:30:21;;;;;;;27.90;20.88;;;1.30;99.90;;;;;;5064250;28;20116;-79
2022/12/11 12:33:03;;;;;;;28.58;22.30;;;1.30;99.90;;;;;;5062961;28;20073;-79
2022/12/11 12:35:37;;;;;;;29.17;24.25;;;1.40;99.90;;;;;;5071007;28;20025;-80
2022/12/11 12:38:43;;;;;;;25.73;20.50;;;1.40;99.90;;;;;;5076854;28;20074;-80
2022/12/11 12:41:19;;;;;;;21.55;17.23;;;1.40;99.90;;;;;;5070595;28;20493;-79
2022/12/11 12:44:01;;;;;;;21.02;16.77;;;1.50;99.90;;;;;;5069055;28;20025;-79
2022/12/11 12:47:12;;;;;;;21.23;16.23;;;1.60;99.90;;;;;;5058406;28;20493;-78
2022/12/11 12:49:50;;;;;;;18.85;15.30;;;1.60;99.90;;;;;;5052349;28;20064;-78